Time;durP1;ratioP1;P1;durP2;ratioP2;P2;SDS_P1;SDS_P2;PMS_P1;PMS_P2;Temp;Humidity;BMP_temperature;BMP_pressure;BME280_temperature;BME280_humidity;BME280_pressure;Samples;Min_cycle;Max_cycle;Signal;HPM_P1;HPM_P2
2023/03/02 00:01:00;;;;;;;16.33;6.60;;;;;;;;;;5008936;28;20037;-48
2023/03/02 00:03:25;;;;;;;19.70;7.85;;;;;;;;;;5007141;28;20030;-49
2023/03/02 00:05:53;;;;;;;18.65;7.35;;;;;;;;;;5007046;28;20038;-49
2023/03/02 00:08:18;;;;;;;16.10;7.05;;;;;;;;;;5005130;28;20034;-48
2023/03/02 00:10:44;;;;;;;19.02;6.68;;;;;;;;;;5009078;28;20072;-46
2023/03/02 00:13:12;;;;;;;20.02;7.40;;;;;;;;;;5021098;28;20038;-47
2023/03/02 00:15:38;;;;;;;25.25;9.00;;;;;;;;;;5026570;28;20037;-46
2023/03/02 00:18:03;;;;;;;21.50;8.57;;;;;;;;;;5022354;28;20099;-47
2023/03/02 00:20:28;;;;;;;17.92;7.25;;;;;;;;;;5022216;28;20055;-50
2023/03/02 00:22:54;;;;;;;19.42;8.10;;;;;;;;;;5028483;28;20076;-49
2023/03/02 00:25:19;;;;;;;15.88;7.22;;;;;;;;;;5026920;28;20021;-46
2023/03/02 00:27:44;;;;;;;20.33;8.20;;;;;;;;;;5026522;28;20041;-47
2023/03/02 00:30:11;;;;;;;17.10;8.27;;;;;;;;;;5026881;28;20076;-48
2023/03/02 00:32:36;;;;;;;21.08;8.18;;;;;;;;;;5029270;28;20037;-48
2023/03/02 00:35:02;;;;;;;21.17;8.55;;;;;;;;;;5031479;28;20021;-46
2023/03/02 00:37:27;;;;;;;18.77;8.95;;;;;;;;;;5030402;28;20030;-47
2023/03/02 00:39:53;;;;;;;24.13;8.57;;;;;;;;;;5030550;28;20040;-48
2023/03/02 00:42:20;;;;;;;19.30;8.07;;;;;;;;;;5030510;28;20029;-47
2023/03/02 00:44:45;;;;;;;22.30;7.57;;;;;;;;;;5029103;28;20064;-47
2023/03/02 00:47:10;;;;;;;13.57;5.90;;;;;;;;;;5027546;28;20034;-49
2023/03/02 00:49:36;;;;;;;18.20;6.72;;;;;;;;;;5030956;28;20446;-48
2023/03/02 00:52:02;;;;;;;17.27;7.47;;;;;;;;;;5029732;28;20030;-46
2023/03/02 00:54:27;;;;;;;17.13;6.28;;;;;;;;;;5026596;28;20045;-50
2023/03/02 00:56:53;;;;;;;18.08;8.07;;;;;;;;;;5030469;28;20052;-46
2023/03/02 00:59:27;;;;;;;23.13;7.70;;;;;;;;;;5030043;28;20033;-47
2023/03/02 01:02:01;;;;;;;20.02;7.88;;;;;;;;;;5017764;28;20474;-49
2023/03/02 01:04:36;;;;;;;13.38;6.72;;;;;;;;;;5010182;28;20025;-52
2023/03/02 01:07:10;;;;;;;21.67;7.13;;;;;;;;;;5010300;28;20034;-47
2023/03/02 01:09:37;;;;;;;17.25;6.70;;;;;;;;;;5016826;28;20511;-49
2023/03/02 01:12:04;;;;;;;21.48;8.85;;;;;;;;;;5021074;28;20582;-47
2023/03/02 01:14:30;;;;;;;16.63;8.38;;;;;;;;;;5029876;28;20038;-47
2023/03/02 01:16:55;;;;;;;17.80;8.00;;;;;;;;;;5030023;28;20092;-49
2023/03/02 01:19:20;;;;;;;11.35;6.13;;;;;;;;;;5025936;28;20442;-47
2023/03/02 01:21:46;;;;;;;15.07;6.13;;;;;;;;;;5023014;28;20037;-45
2023/03/02 01:24:11;;;;;;;19.80;6.65;;;;;;;;;;5029961;28;20116;-47
2023/03/02 01:26:37;;;;;;;16.15;6.15;;;;;;;;;;5029694;28;20035;-47
2023/03/02 01:29:03;;;;;;;14.13;5.85;;;;;;;;;;5026556;28;20116;-48
2023/03/02 01:31:29;;;;;;;16.55;6.45;;;;;;;;;;5029957;28;20017;-47
2023/03/02 01:33:54;;;;;;;12.05;6.00;;;;;;;;;;5028612;28;20045;-47
2023/03/02 01:36:21;;;;;;;15.40;6.18;;;;;;;;;;5029284;28;20041;-48
2023/03/02 01:38:47;;;;;;;17.63;6.68;;;;;;;;;;5029567;28;20041;-47
2023/03/02 01:41:12;;;;;;;12.63;5.95;;;;;;;;;;5027808;28;20526;-48
2023/03/02 01:43:38;;;;;;;19.73;7.15;;;;;;;;;;5029082;28;20037;-47
2023/03/02 01:46:11;;;;;;;15.75;7.28;;;;;;;;;;5028961;28;20591;-50
2023/03/02 01:48:53;;;;;;;20.58;7.97;;;;;;;;;;5029130;28;20033;-46
2023/03/02 01:51:22;;;;;;;18.50;7.25;;;;;;;;;;5028718;28;20124;-48
2023/03/02 01:53:57;;;;;;;13.00;5.97;;;;;;;;;;5020724;28;20041;-50
2023/03/02 01:56:28;;;;;;;21.58;7.15;;;;;;;;;;5029163;28;20108;-47
2023/03/02 01:59:01;;;;;;;15.32;6.70;;;;;;;;;;5028334;28;20063;-46
2023/03/02 02:01:29;;;;;;;16.02;7.00;;;;;;;;;;5029499;28;20021;-47
2023/03/02 02:03:55;;;;;;;21.63;6.68;;;;;;;;;;5027240;28;20594;-49
2023/03/02 02:06:30;;;;;;;16.15;7.15;;;;;;;;;;5028645;28;20033;-47
2023/03/02 02:08:56;;;;;;;23.70;8.05;;;;;;;;;;5028822;28;20121;-49
2023/03/02 02:11:22;;;;;;;18.13;7.25;;;;;;;;;;5028514;28;20504;-48
2023/03/02 02:13:47;;;;;;;16.10;6.72;;;;;;;;;;5028238;28;20083;-49
2023/03/02 02:16:13;;;;;;;15.88;6.88;;;;;;;;;;5027423;28;20084;-49
2023/03/02 02:18:39;;;;;;;17.92;6.72;;;;;;;;;;5029608;28;20037;-47
2023/03/02 02:21:06;;;;;;;13.90;5.50;;;;;;;;;;5048449;28;20139;-50
2023/03/02 02:24:02;;;;;;;18.98;6.47;;;;;;;;;;5048118;28;20098;-46
2023/03/02 02:26:34;;;;;;;18.10;6.53;;;;;;;;;;5048200;28;20045;-46
2023/03/02 02:29:12;;;;;;;19.85;7.38;;;;;;;;;;5035856;28;20056;-48
2023/03/02 02:31:52;;;;;;;14.75;6.00;;;;;;;;;;5027692;28;20776;-46
2023/03/02 02:34:29;;;;;;;15.93;6.90;;;;;;;;;;5028448;28;20075;-47
2023/03/02 02:37:02;;;;;;;15.32;6.78;;;;;;;;;;5027054;28;20091;-46
2023/03/02 02:39:32;;;;;;;17.15;6.20;;;;;;;;;;5027448;28;20099;-51
2023/03/02 02:42:01;;;;;;;14.55;7.18;;;;;;;;;;5027902;28;20106;-46
2023/03/02 02:44:27;;;;;;;17.60;6.45;;;;;;;;;;5027843;28;20490;-47
2023/03/02 02:46:52;;;;;;;11.38;5.30;;;;;;;;;;5047813;28;20490;-47
2023/03/02 02:49:26;;;;;;;18.92;6.75;;;;;;;;;;5048612;28;20685;-45
2023/03/02 02:51:51;;;;;;;15.30;6.03;;;;;;;;;;5047936;28;20037;-48
2023/03/02 02:54:18;;;;;;;17.40;7.18;;;;;;;;;;5034654;28;20037;-46
2023/03/02 02:56:45;;;;;;;18.55;6.68;;;;;;;;;;5047822;28;20033;-47
2023/03/02 02:59:24;;;;;;;14.60;6.53;;;;;;;;;;5047709;28;20039;-48
2023/03/02 03:01:50;;;;;;;18.67;6.57;;;;;;;;;;5046825;28;20466;-46
2023/03/02 03:04:26;;;;;;;15.68;6.47;;;;;;;;;;5047570;28;20051;-45
2023/03/02 03:06:55;;;;;;;12.75;6.25;;;;;;;;;;5047831;28;20060;-48
2023/03/02 03:09:21;;;;;;;13.88;6.45;;;;;;;;;;5047290;28;20039;-47
2023/03/02 03:11:52;;;;;;;14.23;6.57;;;;;;;;;;5020752;28;20042;-46
2023/03/02 03:14:20;;;;;;;14.77;7.05;;;;;;;;;;5026723;28;20084;-49
2023/03/02 03:16:50;;;;;;;9.65;5.65;;;;;;;;;;5007483;28;20527;-50
2023/03/02 03:19:31;;;;;;;10.32;5.40;;;;;;;;;;5021069;28;20120;-49
2023/03/02 03:21:59;;;;;;;15.68;7.03;;;;;;;;;;5047561;28;20057;-46
2023/03/02 03:24:26;;;;;;;14.52;5.85;;;;;;;;;;5035647;28;20037;-49
2023/03/02 03:26:53;;;;;;;14.88;6.50;;;;;;;;;;5024120;28;20037;-51
2023/03/02 03:29:23;;;;;;;13.85;6.32;;;;;;;;;;5027582;28;20080;-46
2023/03/02 03:31:49;;;;;;;15.27;7.65;;;;;;;;;;5027289;28;20033;-46
2023/03/02 03:34:15;;;;;;;18.98;7.28;;;;;;;;;;5025927;28;20037;-47
2023/03/02 03:36:42;;;;;;;16.30;6.88;;;;;;;;;;5027227;28;20557;-48
2023/03/02 03:39:08;;;;;;;14.75;5.78;;;;;;;;;;5026641;28;20037;-48
2023/03/02 03:41:33;;;;;;;16.83;6.50;;;;;;;;;;5027033;28;20064;-46
2023/03/02 03:43:59;;;;;;;14.43;6.57;;;;;;;;;;5027059;28;20048;-46
2023/03/02 03:46:24;;;;;;;17.15;7.10;;;;;;;;;;5027015;28;20558;-46
2023/03/02 03:48:49;;;;;;;16.73;6.55;;;;;;;;;;5026493;28;20045;-49
2023/03/02 03:51:16;;;;;;;14.07;6.72;;;;;;;;;;5026405;28;20029;-45
2023/03/02 03:53:41;;;;;;;13.07;6.28;;;;;;;;;;5026245;28;20116;-47
2023/03/02 03:56:07;;;;;;;16.70;7.30;;;;;;;;;;5021188;28;20036;-47
2023/03/02 03:58:32;;;;;;;19.35;6.35;;;;;;;;;;5026563;28;20029;-47
2023/03/02 04:00:57;;;;;;;18.75;7.32;;;;;;;;;;5026703;28;20100;-47
2023/03/02 04:03:24;;;;;;;16.45;7.20;;;;;;;;;;5026764;28;20098;-46
2023/03/02 04:05:50;;;;;;;14.35;6.10;;;;;;;;;;5025132;28;20522;-47
2023/03/02 04:08:15;;;;;;;16.77;6.93;;;;;;;;;;5026793;28;20037;-49
2023/03/02 04:10:41;;;;;;;16.60;7.30;;;;;;;;;;5026596;28;20053;-45
2023/03/02 04:13:06;;;;;;;14.10;6.30;;;;;;;;;;5024105;28;20041;-48
2023/03/02 04:15:32;;;;;;;15.40;6.53;;;;;;;;;;5026073;28;20141;-47
2023/03/02 04:17:58;;;;;;;14.18;6.13;;;;;;;;;;5026593;28;20088;-47
2023/03/02 04:20:24;;;;;;;11.98;6.03;;;;;;;;;;5041818;28;20569;-47
2023/03/02 04:22:52;;;;;;;11.75;5.88;;;;;;;;;;5046427;28;20474;-45
2023/03/02 04:25:20;;;;;;;12.00;6.40;;;;;;;;;;5037849;28;20049;-47
2023/03/02 04:27:47;;;;;;;12.32;6.20;;;;;;;;;;5023065;28;20103;-46
2023/03/02 04:30:14;;;;;;;16.63;5.65;;;;;;;;;;5025089;28;20055;-46
2023/03/02 04:32:39;;;;;;;16.27;6.28;;;;;;;;;;5026049;28;20033;-49
2023/03/02 04:35:05;;;;;;;12.75;5.68;;;;;;;;;;5026406;28;20033;-48
2023/03/02 04:37:30;;;;;;;13.27;5.63;;;;;;;;;;5026681;28;20608;-47
2023/03/02 04:39:56;;;;;;;15.50;6.40;;;;;;;;;;5025926;28;20510;-46
2023/03/02 04:42:22;;;;;;;12.20;6.93;;;;;;;;;;5026275;28;20040;-47
2023/03/02 04:44:47;;;;;;;13.00;5.90;;;;;;;;;;5026229;28;20746;-46
2023/03/02 04:47:13;;;;;;;18.42;6.40;;;;;;;;;;5025920;28;20052;-48
2023/03/02 04:49:38;;;;;;;12.35;6.75;;;;;;;;;;5026968;28;20112;-48
2023/03/02 04:52:04;;;;;;;17.63;6.25;;;;;;;;;;5014484;28;20120;-47
2023/03/02 04:54:29;;;;;;;11.55;5.03;;;;;;;;;;5025078;28;20033;-48
2023/03/02 04:56:55;;;;;;;14.35;6.55;;;;;;;;;;5025760;28;20033;-47
2023/03/02 04:59:24;;;;;;;13.50;6.18;;;;;;;;;;5025521;28;20034;-47
2023/03/02 05:01:51;;;;;;;17.15;7.60;;;;;;;;;;5026438;28;20075;-47
2023/03/02 05:04:17;;;;;;;10.85;5.85;;;;;;;;;;5025901;28;20024;-48
2023/03/02 05:06:43;;;;;;;14.32;7.07;;;;;;;;;;5026127;28;20534;-48
2023/03/02 05:09:08;;;;;;;18.83;8.02;;;;;;;;;;5026402;28;20080;-46
2023/03/02 05:11:33;;;;;;;21.17;7.97;;;;;;;;;;5025483;28;20029;-50
2023/03/02 05:14:02;;;;;;;15.80;7.20;;;;;;;;;;5023950;28;20032;-48
2023/03/02 05:16:30;;;;;;;15.10;6.93;;;;;;;;;;5025928;28;20050;-48
2023/03/02 05:18:57;;;;;;;13.52;6.50;;;;;;;;;;5032368;28;20132;-47
2023/03/02 05:21:22;;;;;;;16.00;6.93;;;;;;;;;;5049367;28;20579;-49
2023/03/02 05:23:48;;;;;;;17.63;7.35;;;;;;;;;;5049598;28;20025;-46
2023/03/02 05:26:13;;;;;;;22.65;7.75;;;;;;;;;;5048473;28;20041;-47
2023/03/02 05:28:39;;;;;;;17.58;8.00;;;;;;;;;;5050189;28;20027;-47
2023/03/02 05:31:05;;;;;;;12.18;6.43;;;;;;;;;;5031193;28;20053;-46
2023/03/02 05:33:31;;;;;;;12.63;6.60;;;;;;;;;;5029540;28;20076;-47
2023/03/02 05:35:57;;;;;;;16.25;6.55;;;;;;;;;;5029035;28;20049;-46
2023/03/02 05:38:22;;;;;;;20.92;8.13;;;;;;;;;;5028991;28;20095;-46
2023/03/02 05:40:47;;;;;;;18.67;7.63;;;;;;;;;;5029682;28;20025;-49
2023/03/02 05:43:18;;;;;;;15.60;6.43;;;;;;;;;;5029252;28;20391;-49
2023/03/02 05:45:44;;;;;;;16.88;6.50;;;;;;;;;;5028887;28;20124;-47
2023/03/02 05:48:11;;;;;;;13.30;7.05;;;;;;;;;;5029582;28;20487;-46
2023/03/02 05:50:36;;;;;;;11.73;6.38;;;;;;;;;;5028482;28;20467;-46
2023/03/02 05:53:02;;;;;;;19.85;6.95;;;;;;;;;;5018092;28;20018;-46
2023/03/02 05:55:28;;;;;;;14.02;7.13;;;;;;;;;;5009221;28;20115;-48
2023/03/02 05:57:53;;;;;;;13.32;7.13;;;;;;;;;;5008982;28;20564;-45
2023/03/02 06:00:19;;;;;;;15.15;6.68;;;;;;;;;;5008945;28;20120;-45
2023/03/02 06:02:45;;;;;;;12.27;6.57;;;;;;;;;;5009289;28;20407;-48
2023/03/02 06:05:16;;;;;;;21.48;8.23;;;;;;;;;;5008409;28;20026;-48
2023/03/02 06:07:42;;;;;;;14.07;6.70;;;;;;;;;;5009683;28;20653;-48
2023/03/02 06:10:09;;;;;;;19.92;6.55;;;;;;;;;;5016946;28;20033;-48
2023/03/02 06:12:35;;;;;;;19.58;7.47;;;;;;;;;;5027799;28;20037;-48
2023/03/02 06:15:02;;;;;;;20.42;8.02;;;;;;;;;;5025460;28;20030;-46
2023/03/02 06:17:27;;;;;;;15.02;6.65;;;;;;;;;;5027586;28;20645;-46
2023/03/02 06:19:53;;;;;;;17.50;7.65;;;;;;;;;;5040057;28;20139;-47
2023/03/02 06:22:18;;;;;;;16.33;6.30;;;;;;;;;;5038939;28;20109;-48
2023/03/02 06:24:44;;;;;;;21.45;9.63;;;;;;;;;;5040742;28;20037;-48
2023/03/02 06:27:10;;;;;;;18.50;7.78;;;;;;;;;;5025863;28;20036;-46
2023/03/02 06:29:36;;;;;;;18.00;7.00;;;;;;;;;;5002982;28;20042;-46
2023/03/02 06:32:01;;;;;;;17.50;8.52;;;;;;;;;;5015274;28;20403;-47
2023/03/02 06:34:28;;;;;;;16.58;7.70;;;;;;;;;;5007920;28;20018;-45
2023/03/02 06:36:54;;;;;;;17.85;8.23;;;;;;;;;;5008400;28;20045;-45
2023/03/02 06:39:19;;;;;;;10.77;6.32;;;;;;;;;;5007628;28;20034;-47
2023/03/02 06:41:45;;;;;;;20.42;8.63;;;;;;;;;;5008683;28;20128;-50
2023/03/02 06:44:12;;;;;;;15.38;6.55;;;;;;;;;;5008000;28;20037;-46
2023/03/02 06:46:38;;;;;;;18.33;8.65;;;;;;;;;;5008752;28;20029;-50
2023/03/02 06:49:04;;;;;;;17.58;8.35;;;;;;;;;;5007472;28;20124;-48
2023/03/02 06:51:30;;;;;;;17.55;8.75;;;;;;;;;;5007979;28;20066;-50
2023/03/02 06:53:56;;;;;;;20.10;9.63;;;;;;;;;;5004150;28;20041;-48
2023/03/02 06:56:22;;;;;;;15.77;7.95;;;;;;;;;;5008467;28;20037;-50
2023/03/02 06:58:47;;;;;;;18.58;9.98;;;;;;;;;;5007192;28;20407;-47
2023/03/02 07:01:13;;;;;;;19.92;6.63;;;;;;;;;;5008645;28;20025;-47
2023/03/02 07:03:38;;;;;;;13.82;6.60;;;;;;;;;;5007233;28;20049;-47
2023/03/02 07:06:04;;;;;;;12.15;6.70;;;;;;;;;;5007886;28;20038;-50
2023/03/02 07:08:29;;;;;;;13.40;5.15;;;;;;;;;;5007979;28;20072;-45
2023/03/02 07:10:54;;;;;;;11.10;7.05;;;;;;;;;;5012749;28;20026;-47
2023/03/02 07:13:20;;;;;;;14.80;7.28;;;;;;;;;;5007925;28;20018;-46
2023/03/02 07:15:45;;;;;;;12.23;6.68;;;;;;;;;;5019283;28;20033;-49
2023/03/02 07:18:11;;;;;;;13.32;5.72;;;;;;;;;;5026869;28;20057;-46
2023/03/02 07:20:37;;;;;;;8.23;4.70;;;;;;;;;;5044868;28;20112;-49
2023/03/02 07:23:02;;;;;;;14.70;6.95;;;;;;;;;;5027380;28;20030;-46
2023/03/02 07:25:28;;;;;;;15.70;6.30;;;;;;;;;;5026134;28;20491;-47
2023/03/02 07:27:53;;;;;;;14.40;6.55;;;;;;;;;;5027705;28;20033;-47
2023/03/02 07:30:20;;;;;;;8.93;4.72;;;;;;;;;;5026348;28;20068;-48
2023/03/02 07:32:46;;;;;;;10.35;6.00;;;;;;;;;;5027256;28;20120;-48
2023/03/02 07:35:11;;;;;;;12.25;6.20;;;;;;;;;;5026824;28;20033;-46
2023/03/02 07:37:37;;;;;;;15.48;6.85;;;;;;;;;;5024902;28;20074;-47
2023/03/02 07:40:03;;;;;;;14.10;5.45;;;;;;;;;;5027085;28;20030;-46
2023/03/02 07:42:28;;;;;;;13.20;7.15;;;;;;;;;;5026179;28;20040;-47
2023/03/02 07:44:54;;;;;;;11.55;6.60;;;;;;;;;;5021239;28;20038;-48
2023/03/02 07:47:19;;;;;;;17.88;7.68;;;;;;;;;;5019723;28;20061;-45
2023/03/02 07:49:45;;;;;;;16.13;7.25;;;;;;;;;;5031345;28;20086;-46
2023/03/02 07:52:10;;;;;;;17.02;7.25;;;;;;;;;;5045389;28;20025;-48
2023/03/02 07:54:35;;;;;;;19.90;6.40;;;;;;;;;;5044367;28;20123;-49
2023/03/02 07:57:01;;;;;;;13.70;7.03;;;;;;;;;;5018724;28;20037;-49
2023/03/02 07:59:27;;;;;;;8.68;4.50;;;;;;;;;;5020824;28;20600;-49
2023/03/02 08:01:53;;;;;;;11.82;5.15;;;;;;;;;;5035382;28;20609;-47
2023/03/02 08:04:18;;;;;;;16.48;7.65;;;;;;;;;;5025377;28;20048;-48
2023/03/02 08:06:43;;;;;;;15.35;6.07;;;;;;;;;;5026057;28;20033;-45
2023/03/02 08:09:09;;;;;;;16.60;6.20;;;;;;;;;;5026365;28;20049;-49
2023/03/02 08:11:34;;;;;;;19.63;7.35;;;;;;;;;;5019864;28;20036;-46
2023/03/02 08:14:00;;;;;;;19.55;7.57;;;;;;;;;;5021104;28;20116;-46
2023/03/02 08:16:26;;;;;;;15.80;6.03;;;;;;;;;;5025473;28;20478;-46
2023/03/02 08:18:52;;;;;;;17.52;6.88;;;;;;;;;;5028355;28;20147;-45
2023/03/02 08:21:20;;;;;;;19.00;8.23;;;;;;;;;;5028190;28;20503;-47
2023/03/02 08:23:46;;;;;;;28.48;7.15;;;;;;;;;;5017003;28;20033;-46
2023/03/02 08:26:12;;;;;;;13.95;6.63;;;;;;;;;;5024782;28;20611;-49
2023/03/02 08:28:38;;;;;;;11.23;6.00;;;;;;;;;;5023289;28;20033;-47
2023/03/02 08:31:04;;;;;;;19.67;8.05;;;;;;;;;;5022655;28;20037;-47
2023/03/02 08:33:30;;;;;;;12.38;6.28;;;;;;;;;;5024015;28;20420;-46
2023/03/02 08:36:06;;;;;;;15.93;6.43;;;;;;;;;;5023140;28;20037;-49
2023/03/02 08:38:32;;;;;;;24.25;6.88;;;;;;;;;;5025237;28;20431;-48
2023/03/02 08:41:01;;;;;;;16.75;6.53;;;;;;;;;;5020963;28;20485;-45
2023/03/02 08:43:26;;;;;;;13.30;6.60;;;;;;;;;;4998903;28;20484;-48
2023/03/02 08:45:53;;;;;;;12.82;6.72;;;;;;;;;;5014331;28;20049;-47
2023/03/02 08:48:20;;;;;;;19.98;7.25;;;;;;;;;;5019581;28;20044;-48
2023/03/02 08:50:53;;;;;;;11.77;6.38;;;;;;;;;;5024185;28;20519;-47
2023/03/02 08:53:19;;;;;;;14.23;6.97;;;;;;;;;;5028047;28;20037;-50
2023/03/02 08:55:44;;;;;;;14.93;6.70;;;;;;;;;;5030241;28;20045;-48
2023/03/02 08:58:09;;;;;;;12.45;6.00;;;;;;;;;;5029327;28;20458;-47
2023/03/02 09:00:35;;;;;;;21.73;7.38;;;;;;;;;;5018300;28;20517;-46
2023/03/02 09:03:01;;;;;;;14.77;6.75;;;;;;;;;;5028622;28;20057;-51
2023/03/02 09:05:26;;;;;;;13.82;7.00;;;;;;;;;;5027695;28;20026;-50
2023/03/02 09:07:51;;;;;;;17.33;7.72;;;;;;;;;;5029901;28;20483;-49
2023/03/02 09:10:17;;;;;;;14.80;6.78;;;;;;;;;;5028111;28;20022;-49
2023/03/02 09:12:42;;;;;;;15.57;5.93;;;;;;;;;;5033332;28;20033;-47
2023/03/02 09:15:08;;;;;;;17.85;7.72;;;;;;;;;;5042108;28;20057;-51
2023/03/02 09:17:33;;;;;;;17.42;7.20;;;;;;;;;;5029209;28;20419;-50
2023/03/02 09:19:59;;;;;;;15.52;7.70;;;;;;;;;;5026521;28;20503;-48
2023/03/02 09:22:24;;;;;;;14.32;6.82;;;;;;;;;;5045174;28;20032;-48
2023/03/02 09:24:50;;;;;;;15.48;6.82;;;;;;;;;;5049113;28;20025;-47
2023/03/02 09:27:15;;;;;;;18.55;7.07;;;;;;;;;;5049617;28;20040;-49
2023/03/02 09:29:40;;;;;;;14.00;5.95;;;;;;;;;;5027443;28;20112;-47
2023/03/02 09:32:06;;;;;;;14.38;6.63;;;;;;;;;;5048988;28;20032;-49
2023/03/02 09:34:32;;;;;;;20.05;7.93;;;;;;;;;;5049752;28;20029;-50
2023/03/02 09:36:57;;;;;;;18.30;7.45;;;;;;;;;;5048959;28;20032;-51
2023/03/02 09:39:22;;;;;;;12.80;5.50;;;;;;;;;;5049141;28;20098;-47
2023/03/02 09:42:00;;;;;;;20.05;7.50;;;;;;;;;;5033094;28;20048;-46
2023/03/02 09:44:59;;;;;;;13.38;6.32;;;;;;;;;;5027885;28;20033;-48
2023/03/02 09:47:44;;;;;;;19.13;7.75;;;;;;;;;;5029077;28;20030;-48
2023/03/02 09:50:21;;;;;;;14.73;6.95;;;;;;;;;;5026938;28;20881;-48
2023/03/02 09:53:04;;;;;;;15.55;6.93;;;;;;;;;;5028553;28;20055;-46
2023/03/02 09:55:34;;;;;;;15.13;6.78;;;;;;;;;;5028557;28;20419;-47
2023/03/02 09:58:03;;;;;;;20.58;7.55;;;;;;;;;;5024558;28;20046;-45
2023/03/02 10:00:32;;;;;;;17.00;6.30;;;;;;;;;;5021036;28;20038;-51
2023/03/02 10:03:07;;;;;;;19.60;8.50;;;;;;;;;;5016804;28;20593;-49
2023/03/02 10:05:41;;;;;;;26.95;7.95;;;;;;;;;;5013240;28;20760;-48
2023/03/02 10:08:22;;;;;;;23.38;7.10;;;;;;;;;;5007244;28;20026;-51
2023/03/02 10:10:56;;;;;;;13.75;6.10;;;;;;;;;;5008659;28;20029;-48
2023/03/02 10:13:28;;;;;;;16.63;7.50;;;;;;;;;;5008835;28;20036;-48
2023/03/02 10:16:05;;;;;;;15.18;7.45;;;;;;;;;;5021053;28;20068;-45
2023/03/02 10:18:44;;;;;;;20.23;9.52;;;;;;;;;;5028425;28;20038;-48
2023/03/02 10:21:21;;;;;;;17.00;7.25;;;;;;;;;;5048027;28;20040;-48
2023/03/02 10:23:49;;;;;;;17.45;7.80;;;;;;;;;;5017664;28;20038;-49
2023/03/02 10:26:36;;;;;;;11.20;5.82;;;;;;;;;;5019511;28;20030;-46
2023/03/02 10:29:09;;;;;;;12.38;5.88;;;;;;;;;;5028392;28;20029;-50
2023/03/02 10:31:40;;;;;;;19.10;6.72;;;;;;;;;;5025750;28;20022;-48
2023/03/02 10:34:09;;;;;;;15.00;6.97;;;;;;;;;;5027188;28;20461;-48
2023/03/02 10:36:38;;;;;;;13.15;6.40;;;;;;;;;;5027424;28;20033;-50
2023/03/02 10:39:11;;;;;;;21.10;7.68;;;;;;;;;;5027049;28;20060;-51
2023/03/02 10:41:41;;;;;;;14.30;6.45;;;;;;;;;;5027843;28;20104;-49
2023/03/02 10:44:18;;;;;;;16.80;8.02;;;;;;;;;;5028144;28;20038;-48
2023/03/02 10:46:45;;;;;;;15.20;6.78;;;;;;;;;;5028849;28;20017;-48
2023/03/02 10:49:40;;;;;;;17.08;7.88;;;;;;;;;;5027884;28;20096;-47
2023/03/02 10:52:14;;;;;;;14.80;6.70;;;;;;;;;;5026299;28;20049;-46
2023/03/02 10:54:40;;;;;;;17.77;6.55;;;;;;;;;;5028017;28;20183;-50
2023/03/02 10:57:27;;;;;;;19.67;7.35;;;;;;;;;;5027717;28;20536;-50
2023/03/02 10:59:59;;;;;;;21.60;8.57;;;;;;;;;;5027956;28;20030;-45
2023/03/02 11:02:26;;;;;;;21.33;8.32;;;;;;;;;;5026860;28;20076;-51
2023/03/02 11:04:58;;;;;;;15.27;6.70;;;;;;;;;;5026831;28;20534;-47
2023/03/02 11:07:28;;;;;;;10.00;5.20;;;;;;;;;;5027030;28;20075;-49
2023/03/02 11:10:16;;;;;;;15.95;7.50;;;;;;;;;;5026649;28;20412;-50
2023/03/02 11:12:45;;;;;;;15.38;6.57;;;;;;;;;;5026915;28;20048;-47
2023/03/02 11:15:45;;;;;;;16.25;8.07;;;;;;;;;;5026908;28;20038;-48
2023/03/02 11:18:31;;;;;;;16.85;7.95;;;;;;;;;;5012055;28;20136;-47
2023/03/02 11:21:12;;;;;;;16.33;6.88;;;;;;;;;;5007069;28;20041;-47
2023/03/02 11:24:04;;;;;;;17.83;8.30;;;;;;;;;;5007342;28;20515;-46
2023/03/02 11:26:36;;;;;;;18.50;7.35;;;;;;;;;;5021790;28;20574;-47
2023/03/02 11:29:09;;;;;;;25.27;7.88;;;;;;;;;;5026789;28;20037;-46
2023/03/02 11:31:49;;;;;;;18.35;8.55;;;;;;;;;;5026461;28;20029;-49
2023/03/02 11:34:23;;;;;;;25.27;9.27;;;;;;;;;;5019260;28;20042;-47
2023/03/02 11:36:59;;;;;;;17.88;8.50;;;;;;;;;;5026105;28;20128;-49
2023/03/02 11:39:31;;;;;;;19.10;7.50;;;;;;;;;;5025604;28;20029;-49
2023/03/02 11:41:56;;;;;;;19.42;8.00;;;;;;;;;;5021924;28;20541;-49
2023/03/02 11:44:23;;;;;;;18.50;7.35;;;;;;;;;;5020938;28;20061;-50
2023/03/02 11:46:52;;;;;;;17.05;6.78;;;;;;;;;;5029111;28;20055;-47
2023/03/02 11:49:23;;;;;;;21.13;8.40;;;;;;;;;;5030386;28;20503;-48
2023/03/02 11:51:57;;;;;;;18.30;7.97;;;;;;;;;;5022742;28;20112;-46
2023/03/02 11:54:39;;;;;;;19.08;9.00;;;;;;;;;;5027559;28;20525;-49
2023/03/02 11:57:19;;;;;;;33.33;8.10;;;;;;;;;;5044805;28;20064;-49
2023/03/02 11:59:45;;;;;;;17.88;8.20;;;;;;;;;;5044047;28;20464;-49
2023/03/02 12:02:12;;;;;;;15.98;7.75;;;;;;;;;;5044064;28;20795;-47
2023/03/02 12:04:38;;;;;;;19.45;8.52;;;;;;;;;;5044832;28;20060;-46
2023/03/02 12:07:21;;;;;;;19.33;8.68;;;;;;;;;;5045095;28;20532;-48
2023/03/02 12:10:01;;;;;;;19.30;8.05;;;;;;;;;;5045372;28;20040;-49
2023/03/02 12:12:47;;;;;;;25.67;10.38;;;;;;;;;;5034737;28;20525;-52
2023/03/02 12:15:36;;;;;;;26.75;10.30;;;;;;;;;;5013846;28;20038;-48
2023/03/02 12:18:13;;;;;;;19.23;7.82;;;;;;;;;;5016528;28;20678;-48
2023/03/02 12:20:40;;;;;;;22.58;9.02;;;;;;;;;;5033078;28;20426;-47
2023/03/02 12:23:20;;;;;;;19.77;8.93;;;;;;;;;;5022580;28;20054;-50
2023/03/02 12:25:50;;;;;;;19.85;8.25;;;;;;;;;;5025446;28;20052;-50
2023/03/02 12:28:38;;;;;;;20.77;8.52;;;;;;;;;;5024678;28;20410;-46
2023/03/02 12:31:08;;;;;;;25.20;11.35;;;;;;;;;;5024629;28;20048;-48
2023/03/02 12:33:42;;;;;;;24.55;11.75;;;;;;;;;;5021572;28;20041;-48
2023/03/02 12:36:17;;;;;;;22.10;10.55;;;;;;;;;;5023774;28;20034;-49
2023/03/02 12:38:54;;;;;;;35.97;9.25;;;;;;;;;;5024096;28;20041;-48
2023/03/02 12:41:44;;;;;;;21.25;9.32;;;;;;;;;;5023759;28;20061;-47
2023/03/02 12:44:30;;;;;;;17.90;8.20;;;;;;;;;;5023737;28;20087;-51
2023/03/02 12:46:57;;;;;;;31.45;10.57;;;;;;;;;;5021565;28;21533;-46
2023/03/02 12:49:39;;;;;;;25.05;11.55;;;;;;;;;;5017279;28;20036;-49
2023/03/02 12:52:18;;;;;;;19.40;8.45;;;;;;;;;;5042016;28;20129;-48
2023/03/02 12:54:44;;;;;;;22.58;8.90;;;;;;;;;;5018629;28;20600;-46
2023/03/02 12:57:16;;;;;;;22.80;10.00;;;;;;;;;;5020890;28;20083;-50
2023/03/02 12:59:42;;;;;;;25.25;10.25;;;;;;;;;;5018138;28;20138;-47
2023/03/02 13:02:16;;;;;;;24.83;10.60;;;;;;;;;;5013977;28;20037;-47
2023/03/02 13:04:41;;;;;;;24.45;11.50;;;;;;;;;;5003292;28;20057;-47
2023/03/02 13:07:15;;;;;;;24.98;10.77;;;;;;;;;;5003915;28;20061;-48
2023/03/02 13:09:41;;;;;;;22.80;9.55;;;;;;;;;;5014858;28;20112;-47
2023/03/02 13:12:12;;;;;;;24.23;10.98;;;;;;;;;;5022204;28;20516;-49
2023/03/02 13:14:42;;;;;;;29.23;11.23;;;;;;;;;;5023290;28;20029;-50
2023/03/02 13:17:20;;;;;;;23.30;10.32;;;;;;;;;;5023414;28;20041;-48
2023/03/02 13:19:46;;;;;;;24.02;9.02;;;;;;;;;;5033342;28;20410;-47
2023/03/02 13:22:13;;;;;;;30.00;11.73;;;;;;;;;;5043908;28;20013;-48
2023/03/02 13:25:11;;;;;;;25.05;8.55;;;;;;;;;;5043353;28;20033;-49
2023/03/02 13:27:37;;;;;;;24.10;10.52;;;;;;;;;;5014852;28;20064;-50
2023/03/02 13:30:23;;;;;;;21.08;8.88;;;;;;;;;;5013478;28;20513;-48
2023/03/02 13:32:50;;;;;;;30.73;11.75;;;;;;;;;;5009521;28;20041;-48
2023/03/02 13:35:26;;;;;;;27.90;11.63;;;;;;;;;;5029689;28;20128;-50
2023/03/02 13:38:16;;;;;;;22.98;9.95;;;;;;;;;;5033285;28;20124;-48
2023/03/02 13:40:46;;;;;;;27.23;11.13;;;;;;;;;;5012807;28;20029;-48
2023/03/02 13:43:29;;;;;;;23.42;10.50;;;;;;;;;;5018040;28;20434;-47
2023/03/02 13:45:59;;;;;;;22.48;8.93;;;;;;;;;;5026094;28;20037;-47
2023/03/02 13:48:29;;;;;;;27.23;10.85;;;;;;;;;;5023539;28;20037;-46
2023/03/02 13:51:19;;;;;;;25.63;9.43;;;;;;;;;;5024333;28;20112;-48
2023/03/02 13:53:53;;;;;;;24.73;11.07;;;;;;;;;;5024714;28;20067;-50
2023/03/02 13:56:19;;;;;;;;;;;;;;;;;;5024184;28;20118;-49
2023/03/02 13:58:44;;;;;;;26.02;11.13;;;;;;;;;;5023477;28;19923;-48
2023/03/02 14:01:11;;;;;;;24.55;11.85;;;;;;;;;;5026919;28;20419;-50
2023/03/02 14:03:37;;;;;;;25.77;11.00;;;;;;;;;;5025507;28;20155;-47
2023/03/02 14:06:04;;;;;;;25.80;11.10;;;;;;;;;;5026044;28;20466;-48
2023/03/02 14:08:31;;;;;;;27.88;10.23;;;;;;;;;;5025463;28;20053;-48
2023/03/02 14:10:58;;;;;;;24.67;10.93;;;;;;;;;;5026930;28;20052;-48
2023/03/02 14:13:27;;;;;;;22.13;9.48;;;;;;;;;;5025808;28;20108;-49
2023/03/02 14:15:52;;;;;;;19.65;9.23;;;;;;;;;;5025867;28;20041;-50
2023/03/02 14:18:37;;;;;;;21.95;9.68;;;;;;;;;;5015124;28;20037;-48
2023/03/02 14:21:03;;;;;;;27.92;9.75;;;;;;;;;;5010304;28;20604;-51
2023/03/02 14:23:28;;;;;;;23.55;10.10;;;;;;;;;;5024404;28;20034;-50
2023/03/02 14:25:55;;;;;;;23.75;10.02;;;;;;;;;;5026055;28;20033;-47
2023/03/02 14:28:26;;;;;;;23.52;9.90;;;;;;;;;;5024744;28;20029;-48
2023/03/02 14:30:54;;;;;;;21.70;9.35;;;;;;;;;;5023821;28;20059;-49
2023/03/02 14:33:21;;;;;;;21.95;10.02;;;;;;;;;;5025467;28;20046;-50
2023/03/02 14:35:47;;;;;;;27.15;9.98;;;;;;;;;;5032513;28;20040;-46
2023/03/02 14:38:13;;;;;;;22.33;9.10;;;;;;;;;;5045226;28;20598;-51
2023/03/02 14:40:38;;;;;;;24.35;9.07;;;;;;;;;;5045344;28;20107;-50